Terminal Aerodrome Forecast
Issued by NWS Mt. Holly, NJ

Home | Current Version | Previous Version | Text Only | Print | Product List | Glossary On
Versions: 1 2 3 4 5 6 7 8 9 10 11 12
000
FTUS41 KPHI 271129
TAFTTN
TAF
KTTN 271129Z 2712/2812 00000KT P6SM FEW060
     FM271500 22009KT P6SM SCT050
      TEMPO 2718/2722 BKN050
     FM280000 21006KT P6SM FEW060
     FM281000 21003KT 6SM HZ FEW060=

USA.gov is the U.S. government's official web portal to all federal, state and local government web resources and services.